ETEB/QOB METAR and TAF weather

Enter ICAO airport designator
Station Type Date Time Source
ETEB METAR 2023/01/30 11:01 UTC NOAA

ETEB 301101Z COR AUTO 25016KT 9999 BKN007 M00/M02 A3000 RMK AO2A SLP192 FZRANO $ COR 1112


Station Type Date Time Source
ETEB Decoded METAR 2023/01/30 11:01 UTC NOAA

Ansbach / Katterbach, Germany (ETEB) 49-19N 010-38E 476M
Jan 30, 2023 - 06:01 AM EST / 2023.01.30 1101 UTC
Wind: from the WSW (250 degrees) at 18 MPH (16 KT):0
Visibility: greater than 7 mile(s):0
Sky conditions: mostly cloudy
Temperature: 32 F (0 C)
Windchill: 21 F (-6 C):1
Dew Point: 28 F (-2 C)
Relative Humidity: 86%
Pressure (altimeter): 30 in. Hg (1015 hPa)
ob: ETEB 301101Z COR AUTO 25016KT 9999 BKN007 M00/M02 A3000 RMK AO2A SLP192 FZRANO COR 1112
cycle: 11

Station Type Date Time Source
ETEB TAF 2023/01/30 07:13 UTC NOAA

TAF ETEB 300700Z 3007/3113 26010G20KT 9999 OVC010 620106 QNH3002INS
BECMG 3009/3010 27015G25KT 3200 -SN OVC007 620076 QNH2998INS
TEMPO 3010/3015 27025G35KT 510003
BECMG 3014/3015 27015G25KT 9999 NSW OVC010 620106 QNH3002INS
TEMPO 3015/3023 5000 -SN
BECMG 3023/3024 26012KT 9999 OVC007 620074 QNH3015INS TX01/3015Z TNM02/3104Z

Example: see airport list